Time;durP1;ratioP1;P1;durP2;ratioP2;P2;SDS_P1;SDS_P2;PMS_P1;PMS_P2;Temp;Humidity;BMP_temperature;BMP_pressure;BME280_temperature;BME280_humidity;BME280_pressure;Samples;Min_cycle;Max_cycle;Signal;HPM_P1;HPM_P2
2023/08/16 00:00:42;;;;;;;7.00;5.45;;;;;;;;;;5044602;28;20467;-59
2023/08/16 00:03:08;;;;;;;6.15;5.65;;;;;;;;;;5042531;28;20040;-59
2023/08/16 00:05:33;;;;;;;6.35;5.82;;;;;;;;;;5044297;28;20103;-59
2023/08/16 00:07:59;;;;;;;5.15;4.75;;;;;;;;;;5044029;28;20471;-59
2023/08/16 00:10:24;;;;;;;6.00;5.50;;;;;;;;;;5042606;28;20071;-59
2023/08/16 00:12:50;;;;;;;6.57;5.10;;;;;;;;;;5012704;28;20029;-60
2023/08/16 00:15:17;;;;;;;6.72;5.05;;;;;;;;;;5024411;28;20021;-60
2023/08/16 00:17:42;;;;;;;6.18;4.72;;;;;;;;;;5044557;28;20025;-60
2023/08/16 00:20:08;;;;;;;6.18;4.90;;;;;;;;;;5042329;28;20059;-58
2023/08/16 00:22:34;;;;;;;6.15;5.13;;;;;;;;;;5043963;28;20028;-58
2023/08/16 00:24:59;;;;;;;5.32;4.93;;;;;;;;;;5043924;28;20052;-58
2023/08/16 00:27:25;;;;;;;5.82;5.20;;;;;;;;;;5042464;28;20033;-58
2023/08/16 00:29:50;;;;;;;6.65;5.28;;;;;;;;;;5026487;28;20032;-58
2023/08/16 00:32:15;;;;;;;6.72;5.53;;;;;;;;;;5023978;28;20027;-58
2023/08/16 00:34:41;;;;;;;5.80;5.32;;;;;;;;;;5043895;28;20057;-59
2023/08/16 00:37:06;;;;;;;5.60;5.20;;;;;;;;;;5026976;28;20533;-59
2023/08/16 00:39:32;;;;;;;5.47;5.03;;;;;;;;;;5023845;28;20021;-59
2023/08/16 00:41:58;;;;;;;5.25;4.72;;;;;;;;;;5043383;28;20112;-61
2023/08/16 00:44:23;;;;;;;5.63;5.22;;;;;;;;;;5024604;28;20467;-59
2023/08/16 00:46:48;;;;;;;7.10;5.82;;;;;;;;;;5026353;28;20082;-59
2023/08/16 00:49:14;;;;;;;5.93;5.47;;;;;;;;;;5042847;28;20101;-59
2023/08/16 00:51:40;;;;;;;6.07;5.55;;;;;;;;;;5025924;28;20062;-59
2023/08/16 00:54:05;;;;;;;5.78;5.32;;;;;;;;;;5044283;28;20037;-59
2023/08/16 00:56:32;;;;;;;7.63;5.63;;;;;;;;;;5024585;28;20025;-59
2023/08/16 00:58:58;;;;;;;5.45;4.95;;;;;;;;;;5042931;28;20025;-61
2023/08/16 01:01:23;;;;;;;5.38;4.68;;;;;;;;;;5043813;28;20490;-59
2023/08/16 01:03:49;;;;;;;4.88;4.53;;;;;;;;;;5041921;28;20388;-59
2023/08/16 01:06:14;;;;;;;6.53;4.60;;;;;;;;;;5043450;28;20025;-60
2023/08/16 01:08:40;;;;;;;5.63;4.70;;;;;;;;;;5046559;28;20033;-61
2023/08/16 01:11:17;;;;;;;5.03;4.63;;;;;;;;;;5026900;28;20029;-61
2023/08/16 01:13:54;;;;;;;4.75;4.38;;;;;;;;;;5044177;28;20033;-61
2023/08/16 01:16:20;;;;;;;5.50;4.20;;;;;;;;;;5025440;28;20103;-61
2023/08/16 01:18:46;;;;;;;5.15;4.65;;;;;;;;;;5041795;28;20029;-60
2023/08/16 01:21:13;;;;;;;4.85;4.40;;;;;;;;;;5043653;28;20028;-59
2023/08/16 01:23:45;;;;;;;4.93;4.50;;;;;;;;;;5025195;28;20105;-59
2023/08/16 01:26:26;;;;;;;5.22;4.72;;;;;;;;;;5041898;28;20099;-59
2023/08/16 01:28:51;;;;;;;5.63;5.07;;;;;;;;;;5042068;28;20029;-60
2023/08/16 01:31:17;;;;;;;7.03;5.25;;;;;;;;;;5026707;28;20025;-59
2023/08/16 01:33:42;;;;;;;6.05;5.43;;;;;;;;;;5042048;28;20147;-60
2023/08/16 01:36:08;;;;;;;6.28;5.72;;;;;;;;;;5026123;28;20039;-60
2023/08/16 01:38:33;;;;;;;6.32;5.30;;;;;;;;;;5024586;28;20029;-60
2023/08/16 01:41:22;;;;;;;5.95;5.32;;;;;;;;;;5042623;28;20096;-58
2023/08/16 01:43:48;;;;;;;6.05;5.63;;;;;;;;;;5018012;28;20445;-60
2023/08/16 01:46:14;;;;;;;5.57;4.97;;;;;;;;;;5026707;28;20103;-60
2023/08/16 01:48:40;;;;;;;5.50;4.70;;;;;;;;;;5040895;28;20057;-58
2023/08/16 01:51:06;;;;;;;6.25;5.57;;;;;;;;;;5044107;28;20033;-58
2023/08/16 01:53:32;;;;;;;5.95;5.45;;;;;;;;;;5043567;28;20029;-58
2023/08/16 01:55:59;;;;;;;6.50;5.03;;;;;;;;;;5029177;28;20025;-58
2023/08/16 01:58:25;;;;;;;5.32;4.82;;;;;;;;;;5026856;28;20028;-58
2023/08/16 02:00:50;;;;;;;6.20;4.88;;;;;;;;;;5029519;28;20017;-58
2023/08/16 02:03:16;;;;;;;5.47;4.78;;;;;;;;;;5045627;28;20034;-58
2023/08/16 02:05:42;;;;;;;5.75;5.10;;;;;;;;;;5029928;28;20025;-58
2023/08/16 02:08:10;;;;;;;5.20;4.78;;;;;;;;;;5027178;28;20026;-60
2023/08/16 02:10:37;;;;;;;5.32;4.90;;;;;;;;;;5048041;28;20111;-60
2023/08/16 02:13:02;;;;;;;4.72;4.43;;;;;;;;;;5027151;28;20408;-60
2023/08/16 02:15:28;;;;;;;6.85;4.78;;;;;;;;;;5044752;28;20112;-58
2023/08/16 02:17:53;;;;;;;4.93;4.57;;;;;;;;;;5054970;23;20032;-60
2023/08/16 02:20:19;;;;;;;5.18;4.47;;;;;;;;;;5038969;28;20116;-58
2023/08/16 02:22:45;;;;;;;9.98;4.93;;;;;;;;;;5056397;28;20021;-58
2023/08/16 02:25:11;;;;;;;4.63;4.32;;;;;;;;;;5056650;28;20025;-59
2023/08/16 02:27:47;;;;;;;4.30;3.95;;;;;;;;;;5055054;28;20036;-58
2023/08/16 02:30:13;;;;;;;4.85;4.32;;;;;;;;;;5056445;28;20058;-59
2023/08/16 02:32:39;;;;;;;6.22;4.28;;;;;;;;;;5038659;28;20108;-59
2023/08/16 02:35:04;;;;;;;4.90;4.50;;;;;;;;;;5038556;28;20382;-59
2023/08/16 02:37:30;;;;;;;5.07;4.72;;;;;;;;;;5038657;28;20443;-59
2023/08/16 02:39:56;;;;;;;5.70;5.10;;;;;;;;;;5055800;28;20024;-59
2023/08/16 02:42:21;;;;;;;5.28;4.78;;;;;;;;;;5054468;28;20036;-59
2023/08/16 02:44:47;;;;;;;5.85;4.63;;;;;;;;;;5055604;28;20025;-59
2023/08/16 02:47:12;;;;;;;5.50;4.60;;;;;;;;;;5055980;28;20029;-59
2023/08/16 02:49:38;;;;;;;4.80;4.40;;;;;;;;;;5056134;28;20100;-59
2023/08/16 02:52:03;;;;;;;4.68;4.35;;;;;;;;;;5037881;28;20037;-59
2023/08/16 02:54:29;;;;;;;4.85;4.45;;;;;;;;;;5055312;28;20067;-59
2023/08/16 02:56:54;;;;;;;4.95;4.45;;;;;;;;;;5037821;28;20025;-60
2023/08/16 02:59:20;;;;;;;5.70;4.63;;;;;;;;;;5055924;28;20096;-59
2023/08/16 03:01:46;;;;;;;4.68;4.30;;;;;;;;;;5037263;28;20029;-59
2023/08/16 03:04:11;;;;;;;4.65;4.25;;;;;;;;;;5001980;28;20026;-59
2023/08/16 03:06:36;;;;;;;4.38;3.97;;;;;;;;;;5017888;28;20076;-59
2023/08/16 03:09:03;;;;;;;4.90;3.92;;;;;;;;;;5017959;28;20037;-59
2023/08/16 03:11:28;;;;;;;4.82;4.43;;;;;;;;;;5018125;28;20056;-59
2023/08/16 03:13:54;;;;;;;5.10;4.68;;;;;;;;;;5035456;28;20455;-59
2023/08/16 03:16:19;;;;;;;4.72;4.28;;;;;;;;;;5055566;28;20451;-59
2023/08/16 03:18:44;;;;;;;4.07;3.88;;;;;;;;;;5037028;28;20044;-61
2023/08/16 03:21:10;;;;;;;4.93;3.97;;;;;;;;;;5055543;28;20028;-59
2023/08/16 03:23:36;;;;;;;4.57;4.20;;;;;;;;;;5020690;28;20103;-59
2023/08/16 03:26:01;;;;;;;4.15;3.85;;;;;;;;;;5055092;28;20025;-59
2023/08/16 03:28:26;;;;;;;4.07;3.80;;;;;;;;;;5055353;28;20028;-58
2023/08/16 03:30:52;;;;;;;5.28;4.75;;;;;;;;;;5021130;28;20021;-58
2023/08/16 03:33:17;;;;;;;7.60;4.53;;;;;;;;;;5036822;28;20048;-58
2023/08/16 03:35:43;;;;;;;5.03;4.63;;;;;;;;;;5054888;28;20487;-58
2023/08/16 03:38:09;;;;;;;8.00;5.03;;;;;;;;;;5020275;28;20041;-60
2023/08/16 03:40:34;;;;;;;11.95;5.30;;;;;;;;;;5037045;28;20035;-61
2023/08/16 03:42:59;;;;;;;6.32;5.38;;;;;;;;;;5036915;28;20021;-61
2023/08/16 03:45:26;;;;;;;5.45;5.05;;;;;;;;;;5054832;28;20423;-61
2023/08/16 03:47:56;;;;;;;6.32;5.63;;;;;;;;;;5036717;28;20025;-61
2023/08/16 03:50:21;;;;;;;5.68;5.20;;;;;;;;;;5037123;28;20108;-61
2023/08/16 03:52:47;;;;;;;9.82;5.05;;;;;;;;;;5017189;28;20048;-60
2023/08/16 03:55:12;;;;;;;6.72;5.13;;;;;;;;;;5035019;28;20386;-60
2023/08/16 03:57:39;;;;;;;5.57;4.75;;;;;;;;;;5025650;28;20471;-60
2023/08/16 04:00:05;;;;;;;5.72;5.03;;;;;;;;;;5036649;28;20060;-60
2023/08/16 04:02:39;;;;;;;5.43;4.85;;;;;;;;;;5034903;28;20026;-60
2023/08/16 04:05:09;;;;;;;6.50;5.32;;;;;;;;;;5041359;28;20117;-59
2023/08/16 04:07:34;;;;;;;5.43;4.80;;;;;;;;;;5036339;28;20475;-59
2023/08/16 04:10:01;;;;;;;5.32;4.93;;;;;;;;;;5036597;28;20108;-59
2023/08/16 04:12:26;;;;;;;6.20;5.03;;;;;;;;;;5054048;28;20052;-59
2023/08/16 04:14:52;;;;;;;5.53;5.05;;;;;;;;;;5054005;28;20062;-59
2023/08/16 04:17:17;;;;;;;5.65;5.15;;;;;;;;;;5053829;28;20409;-59
2023/08/16 04:19:42;;;;;;;5.50;5.00;;;;;;;;;;5018434;28;20045;-59
2023/08/16 04:22:09;;;;;;;5.22;4.68;;;;;;;;;;5016197;28;20021;-59
2023/08/16 04:24:35;;;;;;;5.85;4.75;;;;;;;;;;5034347;28;20103;-59
2023/08/16 04:27:00;;;;;;;6.15;4.82;;;;;;;;;;5033074;28;20475;-59
2023/08/16 04:29:25;;;;;;;5.85;5.25;;;;;;;;;;5016343;28;20037;-58
2023/08/16 04:31:51;;;;;;;6.28;5.63;;;;;;;;;;5016159;28;20040;-59
2023/08/16 04:34:16;;;;;;;9.63;6.15;;;;;;;;;;5016446;28;20056;-59
2023/08/16 04:36:42;;;;;;;5.85;5.40;;;;;;;;;;5033995;28;20137;-56
2023/08/16 04:39:09;;;;;;;7.97;5.45;;;;;;;;;;5016570;28;20494;-56
2023/08/16 04:41:34;;;;;;;5.75;4.93;;;;;;;;;;5016591;28;20037;-56
2023/08/16 04:44:00;;;;;;;5.40;4.95;;;;;;;;;;5016399;28;20018;-56
2023/08/16 04:46:27;;;;;;;5.65;5.07;;;;;;;;;;5000253;28;20025;-58
2023/08/16 04:48:53;;;;;;;5.68;4.93;;;;;;;;;;5033845;28;20036;-58
2023/08/16 04:51:19;;;;;;;5.53;4.97;;;;;;;;;;5033742;28;20052;-58
2023/08/16 04:53:45;;;;;;;4.95;4.55;;;;;;;;;;5015891;28;20038;-58
2023/08/16 04:56:11;;;;;;;6.47;4.90;;;;;;;;;;5015785;28;20352;-59
2023/08/16 04:58:37;;;;;;;5.50;5.07;;;;;;;;;;4999112;28;20132;-59
2023/08/16 05:01:02;;;;;;;7.25;5.38;;;;;;;;;;5033338;28;20053;-59
2023/08/16 05:03:30;;;;;;;6.38;5.55;;;;;;;;;;5016027;28;20025;-58
2023/08/16 05:06:02;;;;;;;7.95;5.07;;;;;;;;;;5016570;28;20022;-59
2023/08/16 05:08:28;;;;;;;6.43;5.15;;;;;;;;;;5016351;28;20075;-59
2023/08/16 05:10:55;;;;;;;5.63;5.13;;;;;;;;;;5015749;28;20488;-58
2023/08/16 05:13:20;;;;;;;7.65;5.35;;;;;;;;;;5015171;28;20125;-58
2023/08/16 05:15:46;;;;;;;6.63;5.72;;;;;;;;;;5015970;28;20428;-58
2023/08/16 05:18:11;;;;;;;7.53;5.38;;;;;;;;;;5019990;28;20037;-58
2023/08/16 05:20:37;;;;;;;5.68;5.18;;;;;;;;;;5035801;28;20025;-58
2023/08/16 05:23:03;;;;;;;6.60;5.90;;;;;;;;;;5034999;28;20036;-58
2023/08/16 05:25:28;;;;;;;9.23;5.57;;;;;;;;;;5053265;28;20104;-58
2023/08/16 05:27:58;;;;;;;5.82;5.28;;;;;;;;;;5053032;28;20030;-58
2023/08/16 05:30:23;;;;;;;5.22;4.85;;;;;;;;;;5052321;28;20471;-59
2023/08/16 05:32:49;;;;;;;6.68;5.65;;;;;;;;;;5055444;28;20036;-58
2023/08/16 05:35:14;;;;;;;5.65;5.18;;;;;;;;;;5057321;28;20040;-58
2023/08/16 05:37:39;;;;;;;7.43;5.75;;;;;;;;;;5057113;28;20483;-58
2023/08/16 05:40:05;;;;;;;6.35;5.45;;;;;;;;;;5039181;28;20033;-58
2023/08/16 05:42:31;;;;;;;5.72;5.22;;;;;;;;;;5057190;28;20078;-59
2023/08/16 05:44:56;;;;;;;5.88;5.30;;;;;;;;;;5039068;28;20115;-58
2023/08/16 05:47:21;;;;;;;8.43;5.25;;;;;;;;;;5056960;28;20029;-59
2023/08/16 05:49:47;;;;;;;5.88;5.30;;;;;;;;;;5038135;28;20028;-59
2023/08/16 05:52:12;;;;;;;6.07;5.50;;;;;;;;;;5056597;28;20033;-58
2023/08/16 05:54:37;;;;;;;5.88;5.43;;;;;;;;;;5056997;28;20048;-59
2023/08/16 05:57:03;;;;;;;6.88;5.97;;;;;;;;;;5056595;28;20394;-58
2023/08/16 05:59:28;;;;;;;7.28;6.68;;;;;;;;;;5053718;28;20099;-59
2023/08/16 06:01:54;;;;;;;7.18;6.57;;;;;;;;;;5048697;28;20063;-58
2023/08/16 06:04:19;;;;;;;7.38;6.68;;;;;;;;;;5038283;28;20029;-61
2023/08/16 06:06:44;;;;;;;7.68;6.97;;;;;;;;;;5037756;28;20061;-62
2023/08/16 06:09:10;;;;;;;7.50;6.80;;;;;;;;;;5036591;28;20017;-62
2023/08/16 06:11:36;;;;;;;7.70;7.00;;;;;;;;;;5036390;28;20092;-62
2023/08/16 06:14:01;;;;;;;8.45;7.65;;;;;;;;;;5036394;28;20035;-62
2023/08/16 06:16:26;;;;;;;9.00;6.70;;;;;;;;;;5035999;28;20021;-62
2023/08/16 06:18:53;;;;;;;7.97;7.22;;;;;;;;;;5034491;28;20121;-62
2023/08/16 06:21:18;;;;;;;10.27;6.85;;;;;;;;;;5036293;28;20037;-62
2023/08/16 06:23:46;;;;;;;9.15;7.40;;;;;;;;;;5036584;28;20033;-62
2023/08/16 06:26:11;;;;;;;8.40;7.38;;;;;;;;;;5036715;28;20514;-62
2023/08/16 06:28:37;;;;;;;8.73;7.22;;;;;;;;;;5036218;28;20021;-62
2023/08/16 06:31:03;;;;;;;8.98;6.53;;;;;;;;;;5036135;28;20030;-62
2023/08/16 06:33:28;;;;;;;11.43;6.60;;;;;;;;;;5036538;28;20033;-62
2023/08/16 06:35:54;;;;;;;7.25;6.45;;;;;;;;;;5035551;28;20383;-62
2023/08/16 06:38:20;;;;;;;10.45;6.82;;;;;;;;;;5036104;28;20041;-62
2023/08/16 06:40:46;;;;;;;8.52;7.03;;;;;;;;;;5035839;28;20114;-62
2023/08/16 06:43:12;;;;;;;8.02;7.25;;;;;;;;;;5036142;28;20057;-61
2023/08/16 06:45:37;;;;;;;8.30;7.38;;;;;;;;;;5035854;28;20029;-61
2023/08/16 06:48:03;;;;;;;7.55;6.85;;;;;;;;;;5036159;28;20034;-61
2023/08/16 06:50:28;;;;;;;7.13;6.50;;;;;;;;;;5035570;28;20044;-62
2023/08/16 06:52:54;;;;;;;7.57;6.55;;;;;;;;;;5035905;28;20041;-62
2023/08/16 06:55:20;;;;;;;8.43;7.55;;;;;;;;;;5036039;28;20032;-62
2023/08/16 06:57:45;;;;;;;7.25;6.43;;;;;;;;;;5035397;28;20415;-62
2023/08/16 07:00:11;;;;;;;8.85;6.93;;;;;;;;;;5034803;28;20029;-62
2023/08/16 07:02:37;;;;;;;8.50;7.72;;;;;;;;;;5034699;28;20093;-62
2023/08/16 07:05:03;;;;;;;8.18;7.30;;;;;;;;;;5035751;28;20061;-62
2023/08/16 07:07:29;;;;;;;8.68;7.30;;;;;;;;;;5035787;28;20025;-62
2023/08/16 07:09:55;;;;;;;7.53;6.78;;;;;;;;;;5036000;28;20033;-62
2023/08/16 07:12:21;;;;;;;7.28;6.68;;;;;;;;;;5035814;28;20021;-62
2023/08/16 07:14:49;;;;;;;8.95;5.90;;;;;;;;;;5035583;28;20025;-62
2023/08/16 07:17:14;;;;;;;7.82;7.05;;;;;;;;;;5035477;28;20036;-62
2023/08/16 07:19:39;;;;;;;8.23;7.43;;;;;;;;;;5041269;28;20033;-62
2023/08/16 07:22:05;;;;;;;10.07;7.30;;;;;;;;;;5052548;28;20033;-62
2023/08/16 07:24:30;;;;;;;7.78;6.95;;;;;;;;;;5034168;28;20040;-62
2023/08/16 07:26:56;;;;;;;7.40;6.65;;;;;;;;;;5051715;28;20021;-62
2023/08/16 07:29:21;;;;;;;7.90;7.20;;;;;;;;;;5033931;28;20048;-62
2023/08/16 07:31:48;;;;;;;7.68;6.78;;;;;;;;;;5051661;28;20033;-62
2023/08/16 07:34:13;;;;;;;8.73;6.15;;;;;;;;;;5051536;28;20032;-62
2023/08/16 07:36:39;;;;;;;6.75;5.63;;;;;;;;;;5051546;28;20025;-62
2023/08/16 07:39:04;;;;;;;8.45;7.20;;;;;;;;;;5051039;28;20036;-62
2023/08/16 07:41:30;;;;;;;8.85;6.35;;;;;;;;;;5051563;28;20040;-62
2023/08/16 07:43:55;;;;;;;8.02;5.80;;;;;;;;;;5051395;28;20055;-62
2023/08/16 07:46:21;;;;;;;6.28;5.78;;;;;;;;;;5051526;28;20086;-62
2023/08/16 07:48:46;;;;;;;6.25;5.57;;;;;;;;;;5051161;28;20031;-62
2023/08/16 07:51:11;;;;;;;5.78;5.28;;;;;;;;;;5051476;28;20082;-62
2023/08/16 07:53:37;;;;;;;5.22;4.72;;;;;;;;;;5051610;28;20067;-62
2023/08/16 07:56:02;;;;;;;5.43;5.07;;;;;;;;;;5032892;28;20044;-62
2023/08/16 07:58:27;;;;;;;5.22;4.50;;;;;;;;;;5051339;28;20072;-62
2023/08/16 08:00:54;;;;;;;5.55;5.00;;;;;;;;;;5051441;28;20040;-62
2023/08/16 08:03:21;;;;;;;4.97;4.57;;;;;;;;;;5033438;28;20044;-62
2023/08/16 08:05:47;;;;;;;5.68;5.25;;;;;;;;;;5051264;28;20422;-62
2023/08/16 08:08:12;;;;;;;8.90;6.55;;;;;;;;;;5033108;28;20032;-62
2023/08/16 08:10:42;;;;;;;10.93;8.43;;;;;;;;;;5033880;28;20068;-62
2023/08/16 08:13:08;;;;;;;11.75;9.25;;;;;;;;;;5051287;28;20036;-62
2023/08/16 08:15:33;;;;;;;7.90;6.43;;;;;;;;;;5050751;28;20029;-62
2023/08/16 08:17:59;;;;;;;6.22;5.68;;;;;;;;;;5049916;28;20034;-62
2023/08/16 08:20:24;;;;;;;6.43;5.43;;;;;;;;;;5050727;28;20082;-62
2023/08/16 08:22:50;;;;;;;5.68;5.25;;;;;;;;;;5051129;28;20036;-62
2023/08/16 08:25:15;;;;;;;6.18;5.57;;;;;;;;;;5052202;28;20477;-62
2023/08/16 08:27:42;;;;;;;6.28;5.55;;;;;;;;;;5045309;28;20037;-62
2023/08/16 08:30:08;;;;;;;5.97;5.32;;;;;;;;;;5048904;28;20037;-62
2023/08/16 08:32:33;;;;;;;5.90;5.40;;;;;;;;;;5032680;28;20558;-62
2023/08/16 08:34:58;;;;;;;5.65;5.22;;;;;;;;;;5033257;28;20075;-62
2023/08/16 08:37:28;;;;;;;8.98;6.20;;;;;;;;;;5034293;28;20127;-62
2023/08/16 08:39:53;;;;;;;10.85;6.22;;;;;;;;;;5052833;28;20075;-62
2023/08/16 08:42:20;;;;;;;6.18;5.60;;;;;;;;;;5034977;28;20554;-62
2023/08/16 08:44:45;;;;;;;5.93;5.32;;;;;;;;;;5052812;28;20094;-62
2023/08/16 08:47:11;;;;;;;9.95;6.53;;;;;;;;;;5034800;28;20444;-62
2023/08/16 08:49:37;;;;;;;6.47;5.97;;;;;;;;;;5051432;28;20043;-62
2023/08/16 08:52:04;;;;;;;8.80;5.72;;;;;;;;;;5051886;28;20036;-62
2023/08/16 08:54:31;;;;;;;6.13;5.70;;;;;;;;;;5034284;28;20079;-62
2023/08/16 08:57:01;;;;;;;6.97;6.28;;;;;;;;;;5033249;28;20059;-62
2023/08/16 08:59:33;;;;;;;7.70;6.47;;;;;;;;;;5051100;28;20025;-62
2023/08/16 09:01:58;;;;;;;6.68;5.68;;;;;;;;;;5033884;28;20032;-62
2023/08/16 09:04:24;;;;;;;27.40;5.70;;;;;;;;;;5051475;28;20029;-62
2023/08/16 09:06:50;;;;;;;9.80;6.43;;;;;;;;;;5054155;28;20048;-62
2023/08/16 09:09:15;;;;;;;8.27;5.85;;;;;;;;;;5055503;28;20499;-62
2023/08/16 09:11:41;;;;;;;7.43;6.20;;;;;;;;;;5055787;28;20479;-62
2023/08/16 09:14:08;;;;;;;7.22;6.20;;;;;;;;;;5054930;28;20036;-62
2023/08/16 09:16:33;;;;;;;6.40;5.43;;;;;;;;;;5055132;28;20029;-62
2023/08/16 09:18:59;;;;;;;6.78;6.05;;;;;;;;;;5053984;28;20365;-59
2023/08/16 09:21:24;;;;;;;8.52;5.85;;;;;;;;;;5054831;28;20047;-62
2023/08/16 09:23:57;;;;;;;5.93;5.43;;;;;;;;;;5054294;28;20040;-61
2023/08/16 09:26:22;;;;;;;7.90;5.97;;;;;;;;;;5054239;28;20029;-62
2023/08/16 09:28:54;;;;;;;7.80;6.25;;;;;;;;;;5054110;28;20082;-57
2023/08/16 09:31:20;;;;;;;6.68;6.07;;;;;;;;;;5054197;28;20024;-61
2023/08/16 09:33:45;;;;;;;6.53;5.85;;;;;;;;;;5054006;28;20051;-57
2023/08/16 09:36:11;;;;;;;7.05;5.55;;;;;;;;;;5035763;28;20033;-57
2023/08/16 09:38:41;;;;;;;5.80;5.40;;;;;;;;;;5053881;28;20057;-57
2023/08/16 09:41:12;;;;;;;6.17;5.50;;;;;;;;;;5053974;28;20072;-62
2023/08/16 09:43:37;;;;;;;5.90;5.03;;;;;;;;;;5053958;28;20288;-57
2023/08/16 09:46:03;;;;;;;6.13;5.60;;;;;;;;;;5053957;28;20037;-57
2023/08/16 09:48:30;;;;;;;6.82;6.20;;;;;;;;;;5053932;28;20516;-62
2023/08/16 09:51:07;;;;;;;7.43;5.65;;;;;;;;;;5053817;28;20041;-62
2023/08/16 09:53:33;;;;;;;6.32;5.72;;;;;;;;;;5053638;28;20067;-57
2023/08/16 09:55:59;;;;;;;6.82;6.15;;;;;;;;;;5053542;28;20029;-61
2023/08/16 09:58:27;;;;;;;6.65;6.03;;;;;;;;;;5053164;28;20021;-62
2023/08/16 10:00:54;;;;;;;5.90;5.40;;;;;;;;;;5035197;28;20395;-62
2023/08/16 10:03:20;;;;;;;6.60;5.97;;;;;;;;;;5035297;28;20509;-62
2023/08/16 10:05:45;;;;;;;5.78;5.28;;;;;;;;;;5052917;28;20253;-62
2023/08/16 10:08:11;;;;;;;9.43;5.60;;;;;;;;;;5034763;28;20067;-62
2023/08/16 10:10:37;;;;;;;6.03;5.43;;;;;;;;;;5034723;28;20037;-62
2023/08/16 10:13:02;;;;;;;5.85;5.30;;;;;;;;;;5053097;28;20021;-62
2023/08/16 10:15:31;;;;;;;9.73;5.72;;;;;;;;;;5053387;28;20445;-62
2023/08/16 10:17:57;;;;;;;5.90;5.40;;;;;;;;;;5052273;28;20041;-62
2023/08/16 10:20:23;;;;;;;7.88;5.88;;;;;;;;;;5053210;28;20029;-62
2023/08/16 10:22:53;;;;;;;5.82;5.32;;;;;;;;;;5035344;28;20115;-62
2023/08/16 10:25:23;;;;;;;7.45;6.00;;;;;;;;;;5053351;28;20090;-62
2023/08/16 10:27:50;;;;;;;6.85;6.13;;;;;;;;;;5018343;28;20037;-62
2023/08/16 10:30:18;;;;;;;6.35;5.75;;;;;;;;;;5052819;28;20045;-62
2023/08/16 10:32:44;;;;;;;6.18;5.70;;;;;;;;;;5052509;28;20481;-62
2023/08/16 10:35:10;;;;;;;11.20;5.85;;;;;;;;;;5052506;28;20020;-62
2023/08/16 10:37:36;;;;;;;6.10;5.70;;;;;;;;;;5044236;28;20029;-62
2023/08/16 10:40:01;;;;;;;6.28;5.72;;;;;;;;;;5033189;28;20033;-62
2023/08/16 10:42:27;;;;;;;8.30;5.75;;;;;;;;;;5032756;28;20026;-62
2023/08/16 10:44:52;;;;;;;6.07;5.65;;;;;;;;;;5032631;28;20443;-62
2023/08/16 10:47:28;;;;;;;6.15;5.57;;;;;;;;;;5032863;28;20400;-62
2023/08/16 10:49:53;;;;;;;5.95;5.45;;;;;;;;;;5032405;28;20088;-57
2023/08/16 10:52:26;;;;;;;6.25;5.53;;;;;;;;;;5032476;28;20472;-57
2023/08/16 10:54:52;;;;;;;6.15;5.68;;;;;;;;;;5032165;28;20042;-57
2023/08/16 10:57:23;;;;;;;6.32;5.82;;;;;;;;;;5032419;28;20037;-61
2023/08/16 10:59:49;;;;;;;6.15;5.55;;;;;;;;;;5032141;28;20030;-57
2023/08/16 11:02:15;;;;;;;6.00;5.50;;;;;;;;;;5032624;28;20109;-57
2023/08/16 11:04:42;;;;;;;7.53;5.97;;;;;;;;;;5032613;28;20029;-57
2023/08/16 11:07:12;;;;;;;10.05;5.57;;;;;;;;;;5014700;28;20440;-57
2023/08/16 11:09:41;;;;;;;6.47;5.88;;;;;;;;;;5030797;28;20033;-57
2023/08/16 11:12:06;;;;;;;6.18;5.63;;;;;;;;;;5032067;28;20041;-57
2023/08/16 11:14:35;;;;;;;5.53;5.10;;;;;;;;;;5014000;28;20392;-57
2023/08/16 11:17:02;;;;;;;6.22;5.70;;;;;;;;;;5031499;28;20618;-57
2023/08/16 11:19:28;;;;;;;6.53;5.97;;;;;;;;;;5031777;28;20387;-62
2023/08/16 11:21:54;;;;;;;6.45;5.95;;;;;;;;;;5032235;28;20548;-63
2023/08/16 11:24:22;;;;;;;6.50;5.90;;;;;;;;;;5031373;28;20089;-62
2023/08/16 11:26:48;;;;;;;6.10;5.60;;;;;;;;;;5031285;28;20033;-62
2023/08/16 11:29:13;;;;;;;6.05;5.65;;;;;;;;;;5030536;28;20021;-62
2023/08/16 11:31:38;;;;;;;6.78;6.20;;;;;;;;;;5031216;28;20095;-56
2023/08/16 11:34:10;;;;;;;7.55;6.25;;;;;;;;;;5013866;28;20120;-57
2023/08/16 11:36:38;;;;;;;6.22;5.72;;;;;;;;;;5031802;28;20073;-56
2023/08/16 11:39:04;;;;;;;6.63;6.13;;;;;;;;;;5032792;28;20383;-56
2023/08/16 11:41:30;;;;;;;6.72;6.00;;;;;;;;;;5031990;28;20044;-57
2023/08/16 11:43:59;;;;;;;6.90;6.30;;;;;;;;;;5031309;28;20030;-57
2023/08/16 11:46:24;;;;;;;6.78;6.18;;;;;;;;;;5031116;28;20065;-57
2023/08/16 11:48:50;;;;;;;6.82;6.32;;;;;;;;;;5030986;28;20464;-56
2023/08/16 11:51:17;;;;;;;6.70;6.10;;;;;;;;;;5030914;28;20041;-57
2023/08/16 11:53:42;;;;;;;7.00;6.13;;;;;;;;;;5031234;28;20497;-56
2023/08/16 11:56:08;;;;;;;6.30;5.80;;;;;;;;;;5031317;28;20120;-57
2023/08/16 11:58:46;;;;;;;20.67;8.05;;;;;;;;;;5030971;28;20041;-57
2023/08/16 12:01:14;;;;;;;7.03;5.78;;;;;;;;;;5030756;28;20037;-56
2023/08/16 12:03:40;;;;;;;6.22;5.63;;;;;;;;;;5013329;28;20044;-57
2023/08/16 12:06:08;;;;;;;6.32;5.78;;;;;;;;;;5013624;28;20399;-57
2023/08/16 12:08:51;;;;;;;7.20;5.60;;;;;;;;;;5015561;28;20113;-57
2023/08/16 12:11:28;;;;;;;6.63;5.47;;;;;;;;;;5031075;28;20041;-57
2023/08/16 12:13:54;;;;;;;6.63;5.85;;;;;;;;;;5031377;28;20156;-57
2023/08/16 12:16:19;;;;;;;5.88;5.53;;;;;;;;;;5031301;28;20041;-57
2023/08/16 12:18:47;;;;;;;6.78;6.18;;;;;;;;;;5029414;28;20052;-56
2023/08/16 12:21:13;;;;;;;6.32;5.78;;;;;;;;;;5031026;28;20436;-57
2023/08/16 12:23:38;;;;;;;6.72;6.10;;;;;;;;;;5029790;28;20112;-57
2023/08/16 12:26:05;;;;;;;6.38;5.85;;;;;;;;;;5030866;28;20078;-57
2023/08/16 12:28:30;;;;;;;6.00;5.60;;;;;;;;;;5030941;28;20095;-57
2023/08/16 12:30:55;;;;;;;6.97;6.47;;;;;;;;;;5030810;28;20479;-57
2023/08/16 12:33:21;;;;;;;7.43;5.90;;;;;;;;;;5030498;28;20446;-57
2023/08/16 12:35:47;;;;;;;6.97;5.97;;;;;;;;;;5044193;28;20064;-57
2023/08/16 12:38:13;;;;;;;7.25;6.63;;;;;;;;;;5045130;28;20059;-57
2023/08/16 12:40:38;;;;;;;9.05;6.30;;;;;;;;;;5050099;28;20108;-57
2023/08/16 12:43:04;;;;;;;10.15;6.15;;;;;;;;;;5050564;28;20460;-57
2023/08/16 12:45:29;;;;;;;6.75;6.10;;;;;;;;;;5032829;28;20033;-57
2023/08/16 12:47:55;;;;;;;7.13;6.53;;;;;;;;;;5032724;28;20024;-57
2023/08/16 12:50:20;;;;;;;7.10;6.40;;;;;;;;;;5050457;28;20048;-57
2023/08/16 12:52:46;;;;;;;9.98;7.00;;;;;;;;;;5050370;28;20387;-57
2023/08/16 12:55:11;;;;;;;7.13;6.53;;;;;;;;;;5050665;28;20078;-56
2023/08/16 12:57:37;;;;;;;8.30;6.65;;;;;;;;;;5050527;28;20032;-56
2023/08/16 13:00:05;;;;;;;6.63;6.07;;;;;;;;;;5050328;28;20037;-56
2023/08/16 13:02:31;;;;;;;7.60;7.00;;;;;;;;;;5032578;28;20017;-57
2023/08/16 13:04:56;;;;;;;7.47;6.78;;;;;;;;;;5050532;28;20021;-57
2023/08/16 13:07:21;;;;;;;8.43;6.45;;;;;;;;;;5050439;28;20041;-56
2023/08/16 13:09:47;;;;;;;8.68;6.53;;;;;;;;;;5032518;28;20065;-57
2023/08/16 13:12:12;;;;;;;7.43;6.38;;;;;;;;;;5050209;28;20460;-57
2023/08/16 13:14:38;;;;;;;7.15;6.43;;;;;;;;;;5049942;28;20037;-56
2023/08/16 13:17:03;;;;;;;6.70;6.10;;;;;;;;;;5049892;28;20498;-56
2023/08/16 13:19:29;;;;;;;7.72;7.03;;;;;;;;;;5049661;28;20483;-56
2023/08/16 13:21:54;;;;;;;7.47;6.50;;;;;;;;;;5050104;28;20115;-56
2023/08/16 13:24:20;;;;;;;8.70;7.03;;;;;;;;;;5050001;28;20091;-57
2023/08/16 13:26:45;;;;;;;6.82;6.22;;;;;;;;;;5050250;28;20247;-57
2023/08/16 13:29:11;;;;;;;11.55;6.50;;;;;;;;;;5050160;28;20037;-57
2023/08/16 13:31:37;;;;;;;6.95;6.25;;;;;;;;;;5050454;28;20036;-57
2023/08/16 13:34:04;;;;;;;10.23;6.43;;;;;;;;;;5032309;28;20040;-56
2023/08/16 13:36:29;;;;;;;6.72;5.95;;;;;;;;;;5050049;28;20039;-56
2023/08/16 13:38:55;;;;;;;7.15;5.90;;;;;;;;;;5049797;28;20390;-56
2023/08/16 13:41:20;;;;;;;8.85;6.25;;;;;;;;;;5049631;28;20029;-56
2023/08/16 13:43:47;;;;;;;8.75;6.80;;;;;;;;;;5050189;28;20069;-56
2023/08/16 13:46:12;;;;;;;10.93;6.25;;;;;;;;;;5050178;28;20025;-57
2023/08/16 13:48:37;;;;;;;7.13;6.32;;;;;;;;;;5050075;28;20040;-57
2023/08/16 13:51:03;;;;;;;7.20;6.35;;;;;;;;;;5032092;28;20029;-57
2023/08/16 13:53:28;;;;;;;6.25;5.65;;;;;;;;;;5051667;28;20032;-57
2023/08/16 13:55:56;;;;;;;10.20;7.30;;;;;;;;;;5053606;28;20033;-56
2023/08/16 13:58:22;;;;;;;7.22;6.55;;;;;;;;;;5053505;28;20060;-57
2023/08/16 14:00:48;;;;;;;7.75;6.75;;;;;;;;;;5053576;28;20064;-57
2023/08/16 14:03:13;;;;;;;8.73;7.90;;;;;;;;;;5053641;28;20512;-57
2023/08/16 14:05:38;;;;;;;7.95;7.25;;;;;;;;;;5053128;28;20029;-57
2023/08/16 14:08:04;;;;;;;7.55;6.78;;;;;;;;;;5053634;28;20044;-57
2023/08/16 14:10:30;;;;;;;22.88;7.93;;;;;;;;;;5053420;28;20076;-57
2023/08/16 14:12:55;;;;;;;10.05;8.25;;;;;;;;;;5053433;28;20119;-57
2023/08/16 14:15:20;;;;;;;13.68;9.00;;;;;;;;;;5035692;28;20033;-57
2023/08/16 14:17:46;;;;;;;18.95;8.88;;;;;;;;;;5035325;28;20037;-57
2023/08/16 14:20:11;;;;;;;9.57;8.57;;;;;;;;;;5053229;28;20505;-57
2023/08/16 14:22:37;;;;;;;12.77;8.98;;;;;;;;;;5052974;28;20855;-57
2023/08/16 14:25:03;;;;;;;13.13;9.50;;;;;;;;;;5050885;28;20136;-57
2023/08/16 14:27:28;;;;;;;10.85;8.88;;;;;;;;;;5050800;28;20044;-57
2023/08/16 14:29:54;;;;;;;11.30;8.95;;;;;;;;;;5052280;28;20538;-57
2023/08/16 14:32:22;;;;;;;9.63;8.70;;;;;;;;;;5052047;28;20063;-57
2023/08/16 14:34:48;;;;;;;9.60;8.60;;;;;;;;;;5051780;28;20033;-57
2023/08/16 14:37:13;;;;;;;17.52;10.00;;;;;;;;;;5050255;28;20027;-57